Time;durP1;ratioP1;P1;durP2;ratioP2;P2;SDS_P1;SDS_P2;PMS_P1;PMS_P2;Temp;Humidity;BMP_temperature;BMP_pressure;BME280_temperature;BME280_humidity;BME280_pressure;Samples;Min_cycle;Max_cycle;Signal;HPM_P1;HPM_P2
2023/08/09 00:00:31;;;;;;;2.50;1.42;;;;;;;13.97;100.00;95814.50;1030409;28;20084;-73
2023/08/09 00:01:02;;;;;;;3.10;1.70;;;;;;;13.99;100.00;95812.38;1027443;28;20038;-75
2023/08/09 00:01:32;;;;;;;1.90;1.60;;;;;;;13.97;100.00;95819.75;1027014;28;20030;-73
2023/08/09 00:02:03;;;;;;;2.60;1.40;;;;;;;13.95;100.00;95811.34;1022854;29;20043;-75
2023/08/09 00:02:34;;;;;;;2.45;1.65;;;;;;;13.95;100.00;95811.34;1023093;28;20039;-73
2023/08/09 00:03:04;;;;;;;5.00;1.75;;;;;;;13.88;100.00;95801.94;1027125;28;20031;-73
2023/08/09 00:03:35;;;;;;;4.15;1.80;;;;;;;13.93;100.00;95809.00;1031188;28;20030;-74
2023/08/09 00:04:05;;;;;;;2.83;1.90;;;;;;;13.90;100.00;95802.41;1031978;28;20369;-75
2023/08/09 00:04:36;;;;;;;4.28;1.63;;;;;;;13.91;100.00;95806.63;1035028;28;20029;-75
2023/08/09 00:05:07;;;;;;;1.58;1.48;;;;;;;13.93;100.00;95802.94;1035174;28;20026;-73
2023/08/09 00:05:37;;;;;;;4.20;1.80;;;;;;;13.93;100.00;95801.06;1030942;28;20488;-73
2023/08/09 00:06:07;;;;;;;4.00;1.95;;;;;;;13.91;100.00;95805.84;1031014;28;20030;-72
2023/08/09 00:06:38;;;;;;;2.95;1.70;;;;;;;13.82;100.00;95792.50;1030991;28;20038;-73
2023/08/09 00:07:08;;;;;;;2.97;1.80;;;;;;;13.90;100.00;95805.06;1031043;28;20685;-76
2023/08/09 00:07:39;;;;;;;2.00;1.40;;;;;;;13.86;100.00;95804.06;1035143;28;20653;-74
2023/08/09 00:08:09;;;;;;;3.33;1.67;;;;;;;13.86;100.00;95809.31;1030967;28;20049;-74
2023/08/09 00:08:40;;;;;;;4.65;1.65;;;;;;;13.82;100.00;95803.06;1027032;28;20154;-72
2023/08/09 00:09:10;;;;;;;3.92;1.63;;;;;;;13.87;100.00;95810.88;1026917;28;20130;-74
2023/08/09 00:09:41;;;;;;;3.20;2.00;;;;;;;13.86;100.00;95805.91;1030153;28;20511;-73
2023/08/09 00:10:11;;;;;;;3.88;1.67;;;;;;;13.85;100.00;95807.78;1035094;28;20049;-73
2023/08/09 00:10:42;;;;;;;2.65;1.58;;;;;;;13.81;100.00;95809.38;1038466;28;20038;-74
2023/08/09 00:11:12;;;;;;;2.90;1.70;;;;;;;13.86;100.00;95809.31;1033094;28;20722;-72
2023/08/09 00:11:43;;;;;;;1.55;1.45;;;;;;;13.83;100.00;95809.88;1027061;28;20065;-73
2023/08/09 00:12:14;;;;;;;3.38;1.80;;;;;;;13.83;100.00;95807.25;1027015;28;20520;-75
2023/08/09 00:12:44;;;;;;;5.05;1.90;;;;;;;13.86;100.00;95813.81;1027359;28;20057;-74
2023/08/09 00:13:15;;;;;;;7.88;1.60;;;;;;;13.83;100.00;95807.25;1035191;28;20044;-74
2023/08/09 00:13:45;;;;;;;3.65;1.58;;;;;;;13.82;100.00;95803.06;1035144;28;20045;-74
2023/08/09 00:14:16;;;;;;;3.55;2.45;;;;;;;13.73;100.00;95794.19;1030926;28;20065;-73
2023/08/09 00:14:46;;;;;;;4.38;1.80;;;;;;;13.80;100.00;95799.91;1030899;28;20026;-74
2023/08/09 00:15:17;;;;;;;2.50;1.58;;;;;;;13.80;100.00;95807.81;1031248;28;20701;-76
2023/08/09 00:15:47;;;;;;;3.72;1.98;;;;;;;13.76;100.00;95798.13;1031206;28;20100;-76
2023/08/09 00:16:18;;;;;;;5.78;1.58;;;;;;;13.80;100.00;95801.75;1026907;28;20050;-73
2023/08/09 00:16:48;;;;;;;2.42;1.60;;;;;;;13.77;100.00;95804.94;1026944;28;20065;-75
2023/08/09 00:17:18;;;;;;;5.60;1.67;;;;;;;13.79;100.00;95803.59;1031064;28;20038;-76
2023/08/09 00:17:49;;;;;;;3.58;1.80;;;;;;;13.76;100.00;95809.44;1031094;28;20038;-74
2023/08/09 00:18:19;;;;;;;2.60;1.55;;;;;;;13.77;100.00;95804.94;1027115;28;20066;-71
2023/08/09 00:18:50;;;;;;;3.10;1.60;;;;;;;13.77;100.00;95804.94;1027104;28;20420;-73
2023/08/09 00:19:20;;;;;;;2.03;1.50;;;;;;;13.69;100.00;95795.81;1027122;28;20034;-74
2023/08/09 00:19:51;;;;;;;3.92;1.45;;;;;;;13.77;100.00;95802.31;1019078;29;20470;-73
2023/08/09 00:20:22;;;;;;;1.98;1.58;;;;;;;13.77;100.00;95802.31;1022503;29;20058;-74
2023/08/09 00:20:53;;;;;;;3.58;1.50;;;;;;;13.76;100.00;95801.53;1022762;29;20039;-74
2023/08/09 00:21:23;;;;;;;2.25;1.77;;;;;;;13.68;100.00;95791.59;1024929;28;20019;-73
2023/08/09 00:21:54;;;;;;;1.67;1.30;;;;;;;13.75;100.00;95799.16;1034480;28;20041;-74
2023/08/09 00:22:24;;;;;;;2.90;1.50;;;;;;;13.75;100.00;95802.59;1036551;28;20415;-73
2023/08/09 00:22:54;;;;;;;2.33;1.60;;;;;;;13.70;100.00;95793.97;1034815;28;20656;-75
2023/08/09 00:23:25;;;;;;;3.45;1.27;;;;;;;13.69;100.00;95790.53;1034924;28;20034;-74
2023/08/09 00:23:55;;;;;;;4.18;1.80;;;;;;;13.59;100.00;95777.47;1026977;28;20080;-73
2023/08/09 00:24:26;;;;;;;2.70;1.88;;;;;;;13.75;100.00;95802.59;1032548;28;20034;-74
2023/08/09 00:24:59;;;;;;;3.45;1.67;;;;;;;13.74;100.00;95795.75;1023843;28;20756;-74
2023/08/09 00:25:30;;;;;;;2.15;1.48;;;;;;;13.72;100.00;95805.81;1021233;29;20023;-72
2023/08/09 00:26:00;;;;;;;2.33;1.70;;;;;;;13.66;100.00;95794.50;1022863;29;20035;-74
2023/08/09 00:26:31;;;;;;;2.78;1.70;;;;;;;13.74;100.00;95803.66;1026620;28;20073;-75
2023/08/09 00:27:01;;;;;;;2.70;1.65;;;;;;;13.71;100.00;95801.56;1026897;28;20543;-74
2023/08/09 00:27:32;;;;;;;3.50;1.88;;;;;;;13.73;100.00;95799.44;1029496;28;20019;-75
2023/08/09 00:28:02;;;;;;;2.80;1.40;;;;;;;13.74;100.00;95802.88;1030863;28;20034;-73
2023/08/09 00:28:33;;;;;;;8.80;1.73;;;;;;;13.73;100.00;95801.31;1034815;28;20128;-73
2023/08/09 00:29:03;;;;;;;2.15;1.42;;;;;;;13.67;100.00;95795.28;1030926;28;20506;-73
2023/08/09 00:29:34;;;;;;;2.13;1.70;;;;;;;13.64;100.00;95790.56;1034983;28;20096;-73
2023/08/09 00:30:05;;;;;;;6.40;1.35;;;;;;;13.71;100.00;95800.78;1023885;28;20440;-73
2023/08/09 00:30:36;;;;;;;1.80;1.30;;;;;;;13.71;100.00;95804.22;1022359;29;20031;-75
2023/08/09 00:31:06;;;;;;;3.05;1.90;;;;;;;13.67;100.00;95795.28;1022855;29;20489;-74
2023/08/09 00:31:37;;;;;;;3.15;1.73;;;;;;;13.71;100.00;95800.78;1022980;28;20035;-74
2023/08/09 00:32:07;;;;;;;3.35;1.60;;;;;;;13.71;100.00;95801.56;1022851;29;20031;-74
2023/08/09 00:32:38;;;;;;;2.60;1.35;;;;;;;13.70;100.00;95802.66;1022969;28;20034;-75
2023/08/09 00:33:09;;;;;;;3.63;1.70;;;;;;;13.67;100.00;95795.28;1027067;28;20019;-76
2023/08/09 00:33:39;;;;;;;2.10;1.52;;;;;;;13.67;100.00;95801.34;1027195;28;20739;-73
2023/08/09 00:34:10;;;;;;;2.85;1.40;;;;;;;13.70;100.00;95802.66;1023021;29;20039;-71
2023/08/09 00:34:41;;;;;;;1.92;1.20;;;;;;;13.70;100.00;95804.50;1022989;29;20038;-73
2023/08/09 00:35:12;;;;;;;2.47;1.48;;;;;;;13.61;100.00;95793.78;1023041;28;20512;-74
2023/08/09 00:35:42;;;;;;;3.72;1.83;;;;;;;13.68;100.00;95802.13;1027077;28;20034;-73
2023/08/09 00:36:13;;;;;;;1.73;1.40;;;;;;;13.67;100.00;95811.13;1027092;28;20039;-72
2023/08/09 00:36:43;;;;;;;5.32;1.83;;;;;;;13.68;100.00;95807.41;1029085;28;20034;-74
2023/08/09 00:37:14;;;;;;;2.22;1.70;;;;;;;13.67;100.00;95803.19;1026849;28;20038;-74
2023/08/09 00:37:44;;;;;;;1.98;1.35;;;;;;;13.67;100.00;95805.84;1022967;28;20023;-74
2023/08/09 00:38:14;;;;;;;2.65;1.42;;;;;;;13.66;100.00;95805.06;1026915;28;20031;-73
2023/08/09 00:38:45;;;;;;;2.00;1.58;;;;;;;13.65;100.00;95800.06;1019030;29;20039;-74
2023/08/09 00:39:16;;;;;;;5.57;1.88;;;;;;;13.63;100.00;95794.28;1022873;29;20027;-73
2023/08/09 00:39:46;;;;;;;2.55;1.48;;;;;;;13.64;100.00;95796.63;1022842;29;20031;-71
2023/08/09 00:40:17;;;;;;;1.75;1.50;;;;;;;13.71;100.00;95806.84;1022745;28;20194;-72
2023/08/09 00:40:47;;;;;;;3.65;1.80;;;;;;;13.71;100.00;95809.47;1022135;29;20067;-74
2023/08/09 00:41:18;;;;;;;5.30;1.70;;;;;;;13.62;100.00;95796.16;1026833;28;20484;-75
2023/08/09 00:41:49;;;;;;;2.20;1.55;;;;;;;13.70;100.00;95804.50;1030661;28;20131;-73
2023/08/09 00:42:19;;;;;;;3.10;1.88;;;;;;;13.70;100.00;95804.50;1022875;29;20059;-75
2023/08/09 00:42:49;;;;;;;4.40;1.88;;;;;;;13.68;100.00;95808.22;1014990;29;20039;-73
2023/08/09 00:43:20;;;;;;;1.88;1.30;;;;;;;13.67;100.00;95801.34;1014949;29;20031;-72
2023/08/09 00:43:50;;;;;;;2.67;1.55;;;;;;;13.64;100.00;95801.13;1026794;28;20023;-72
2023/08/09 00:44:21;;;;;;;2.35;1.60;;;;;;;13.68;100.00;95807.41;1022858;29;20023;-74
2023/08/09 00:44:52;;;;;;;3.15;1.52;;;;;;;13.68;100.00;95808.22;1018774;29;20083;-73
2023/08/09 00:45:22;;;;;;;3.17;1.48;;;;;;;13.71;100.00;95806.06;1017794;29;20062;-74
2023/08/09 00:45:53;;;;;;;2.05;1.50;;;;;;;13.72;100.00;95811.06;1022897;28;20069;-75
2023/08/09 00:46:23;;;;;;;2.53;1.58;;;;;;;13.68;100.00;95799.50;1031041;28;20019;-72
2023/08/09 00:46:53;;;;;;;2.17;1.52;;;;;;;13.67;100.00;95796.06;1030721;28;20050;-72
2023/08/09 00:47:24;;;;;;;4.18;1.80;;;;;;;13.71;100.00;95801.56;1030883;28;20026;-74
2023/08/09 00:47:54;;;;;;;2.08;1.40;;;;;;;13.73;100.00;95806.59;1026786;28;20022;-73
2023/08/09 00:48:25;;;;;;;2.53;1.60;;;;;;;13.67;100.00;95790.81;1026749;28;20022;-75
2023/08/09 00:48:55;;;;;;;2.22;1.65;;;;;;;13.71;100.00;95795.50;1022810;29;20353;-73
2023/08/09 00:49:27;;;;;;;2.90;1.70;;;;;;;13.75;100.00;95802.59;1026869;28;20073;-74
2023/08/09 00:49:57;;;;;;;2.35;1.80;;;;;;;13.70;100.00;95792.09;1027045;28;20035;-73
2023/08/09 00:50:27;;;;;;;2.83;1.60;;;;;;;13.68;100.00;95791.59;1020891;29;20031;-72
2023/08/09 00:50:58;;;;;;;4.93;1.77;;;;;;;13.70;100.00;95791.31;1018835;29;20067;-74
2023/08/09 00:51:28;;;;;;;3.03;1.77;;;;;;;13.76;100.00;95798.13;1026849;28;20046;-74
2023/08/09 00:51:59;;;;;;;3.42;1.67;;;;;;;13.69;100.00;95790.53;1024036;28;20031;-73
2023/08/09 00:52:29;;;;;;;5.10;1.73;;;;;;;13.71;100.00;95798.16;1026775;28;20026;-73
2023/08/09 00:53:00;;;;;;;1.55;1.30;;;;;;;13.70;100.00;95794.75;1030942;28;20041;-74
2023/08/09 00:53:31;;;;;;;1.75;1.40;;;;;;;13.69;100.00;95795.81;1022977;29;20027;-73
2023/08/09 00:54:01;;;;;;;2.17;1.38;;;;;;;13.76;100.00;95804.16;1022888;29;20030;-72
2023/08/09 00:54:32;;;;;;;3.78;1.55;;;;;;;13.73;100.00;95802.09;1022863;29;20014;-72
2023/08/09 00:55:06;;;;;;;1.83;1.40;;;;;;;13.77;100.00;95811.00;1034981;28;20049;-73
2023/08/09 00:55:38;;;;;;;2.33;1.50;;;;;;;13.71;100.00;95801.56;1023509;28;20113;-72
2023/08/09 00:56:09;;;;;;;4.30;1.70;;;;;;;13.77;100.00;95803.09;1026706;28;20513;-73
2023/08/09 00:56:39;;;;;;;2.22;1.73;;;;;;;13.71;100.00;95796.28;1026870;28;20023;-75
2023/08/09 00:57:09;;;;;;;3.05;1.30;;;;;;;13.76;100.00;95798.91;1026688;28;20023;-73
2023/08/09 00:57:40;;;;;;;2.38;1.40;;;;;;;13.75;100.00;95801.78;1022914;29;20035;-73
2023/08/09 00:58:10;;;;;;;3.08;1.40;;;;;;;13.77;100.00;95804.94;1026817;28;20026;-72
2023/08/09 00:58:41;;;;;;;1.60;1.50;;;;;;;13.78;100.00;95801.25;1026799;28;20104;-73
2023/08/09 00:59:12;;;;;;;1.85;1.33;;;;;;;13.78;100.00;95803.88;1031028;28;20500;-72
2023/08/09 00:59:42;;;;;;;1.35;1.23;;;;;;;13.72;100.00;95791.84;1030901;28;20058;-74
2023/08/09 01:00:13;;;;;;;4.05;1.70;;;;;;;13.74;100.00;95793.09;1022627;28;20055;-73
2023/08/09 01:00:43;;;;;;;2.75;1.80;;;;;;;13.77;100.00;95803.09;1025189;28;20050;-73
2023/08/09 01:01:14;;;;;;;4.38;1.40;;;;;;;13.74;100.00;95790.47;1026959;28;20089;-75
2023/08/09 01:01:44;;;;;;;5.40;2.05;;;;;;;13.78;100.00;95794.13;1030823;28;20061;-73
2023/08/09 01:02:15;;;;;;;1.73;1.40;;;;;;;13.78;100.00;95809.97;1030550;28;20027;-74
2023/08/09 01:02:45;;;;;;;5.68;1.65;;;;;;;13.78;100.00;95796.78;1026562;28;20022;-73
2023/08/09 01:03:16;;;;;;;2.60;1.33;;;;;;;13.78;100.00;95801.25;1022704;29;20649;-73
2023/08/09 01:03:46;;;;;;;2.33;1.60;;;;;;;13.79;100.00;95802.81;1022612;29;20039;-74
2023/08/09 01:04:17;;;;;;;5.00;1.63;;;;;;;13.73;100.00;95788.91;1022634;29;20074;-74
2023/08/09 01:04:47;;;;;;;4.93;1.73;;;;;;;13.73;100.00;95796.03;1022714;29;20478;-72
2023/08/09 01:05:18;;;;;;;3.85;2.08;;;;;;;13.71;100.00;95791.03;1023023;28;20034;-72
2023/08/09 01:06:05;;;;;;;2.70;1.60;;;;;;;13.77;100.00;95803.09;1015478;29;20115;-73
2023/08/09 01:06:51;;;;;;;2.55;1.50;;;;;;;13.78;100.00;95809.16;1022621;29;20118;-73
2023/08/09 01:07:36;;;;;;;3.40;1.60;;;;;;;13.73;100.00;95796.03;1030638;28;20373;-74
2023/08/09 01:08:07;;;;;;;4.25;1.73;;;;;;;13.76;100.00;95804.16;1035487;28;20025;-73
2023/08/09 01:08:37;;;;;;;2.78;1.88;;;;;;;13.68;100.00;95797.66;1029873;28;20120;-74
2023/08/09 01:09:29;;;;;;;3.83;1.80;;;;;;;13.63;100.00;95802.19;1030529;28;20026;-72
2023/08/09 01:10:08;;;;;;;2.92;1.80;;;;;;;13.58;100.00;95807.50;1023919;28;20781;-72
2023/08/09 01:11:11;;;;;;;3.53;1.80;;;;;;;13.52;100.00;95813.94;1033589;28;20885;-72
2023/08/09 01:11:59;;;;;;;2.45;1.65;;;;;;;13.46;100.00;95820.31;1035926;28;20022;-73
2023/08/09 01:12:34;;;;;;;3.45;1.60;;;;;;;13.39;100.00;95818.78;1032212;28;20100;-73
2023/08/09 01:13:05;;;;;;;2.45;1.88;;;;;;;13.32;100.00;95813.06;1032483;28;20034;-72
2023/08/09 01:13:37;;;;;;;2.33;1.50;;;;;;;13.35;100.00;95820.41;1018714;29;20985;-74
2023/08/09 01:14:07;;;;;;;3.22;1.90;;;;;;;13.29;100.00;95810.19;1022156;28;20769;-73
2023/08/09 01:14:41;;;;;;;12.75;2.00;;;;;;;13.27;100.00;95807.81;1022440;29;20039;-72
2023/08/09 01:15:12;;;;;;;19.92;2.40;;;;;;;13.30;100.00;95817.78;1026837;28;20151;-73
2023/08/09 01:15:42;;;;;;;14.40;1.65;;;;;;;13.24;100.00;95815.47;1022710;29;20537;-73
2023/08/09 01:16:13;;;;;;;456.55;85.43;;;;;;;13.27;100.00;95820.97;1030425;28;20022;-74
2023/08/09 01:16:44;;;;;;;89.43;80.38;;;;;;;13.23;100.00;95811.25;1018755;29;20024;-73
2023/08/09 01:17:14;;;;;;;91.60;60.75;;;;;;;13.23;100.00;95817.31;1026415;28;20125;-72
2023/08/09 01:17:45;;;;;;;66.82;8.88;;;;;;;13.16;100.00;95807.09;1030785;28;20574;-71
2023/08/09 01:18:16;;;;;;;4.40;1.20;;;;;;;13.19;100.00;95816.28;1026523;28;20030;-74
2023/08/09 01:18:47;;;;;;;3.70;1.50;;;;;;;13.18;100.00;95815.50;1022687;29;20035;-74
2023/08/09 01:19:38;;;;;;;1.83;1.42;;;;;;;13.19;100.00;95821.56;1030686;28;20515;-73
2023/08/09 01:20:11;;;;;;;;;;;;;;;13.20;100.00;95815.22;1023007;29;20023;-73
2023/08/09 01:20:42;;;;;;;1.67;1.10;;;;;;;13.14;100.00;95814.47;1033229;28;19968;-72
2023/08/09 01:21:13;;;;;;;2.00;0.88;;;;;;;13.09;100.00;95809.25;1023364;28;20019;-74
2023/08/09 01:21:44;;;;;;;2.72;1.42;;;;;;;13.12;100.00;95816.63;1023073;28;20038;-72
2023/08/09 01:22:23;;;;;;;22.60;2.95;;;;;;;13.13;100.00;95822.66;1022546;29;20039;-73
2023/08/09 01:22:57;;;;;;;3.22;1.75;;;;;;;13.15;100.00;95833.72;1022657;29;20020;-71
2023/08/09 01:23:32;;;;;;;2.88;1.40;;;;;;;13.14;100.00;95829.50;1026546;28;20011;-72
2023/08/09 01:24:02;;;;;;;3.78;1.90;;;;;;;13.14;100.00;95829.50;1026548;28;20138;-72
2023/08/09 01:24:33;;;;;;;2.75;1.70;;;;;;;13.13;100.00;95825.31;1027841;28;20479;-74
2023/08/09 01:25:06;;;;;;;2.95;1.80;;;;;;;13.12;100.00;95837.69;1030398;28;20022;-72
2023/08/09 01:25:38;;;;;;;3.72;2.25;;;;;;;13.07;100.00;95829.03;1026565;28;20424;-72
2023/08/09 01:26:09;;;;;;;3.10;1.60;;;;;;;12.97;100.00;95820.13;1018599;29;20752;-73
2023/08/09 01:26:40;;;;;;;3.15;1.80;;;;;;;13.02;100.00;95832.50;1029400;28;20315;-74
2023/08/09 01:27:10;;;;;;;5.07;1.70;;;;;;;12.91;100.00;95826.53;1030467;28;20022;-74
2023/08/09 01:27:41;;;;;;;2.85;1.77;;;;;;;12.96;100.00;95830.97;1026479;28;20031;-76
2023/08/09 01:28:14;;;;;;;4.32;1.70;;;;;;;12.88;100.00;95826.28;1021073;29;20031;-74
2023/08/09 01:28:44;;;;;;;2.17;1.55;;;;;;;12.94;100.00;95833.06;1019442;28;20023;-73
2023/08/09 01:29:15;;;;;;;2.05;1.60;;;;;;;12.92;100.00;95835.22;1027025;28;20019;-72
2023/08/09 01:29:45;;;;;;;1.90;1.50;;;;;;;12.83;100.00;95819.19;1031386;28;20026;-74
2023/08/09 01:30:16;;;;;;;3.67;1.90;;;;;;;12.80;100.00;95822.38;1034439;28;20025;-73
2023/08/09 01:30:46;;;;;;;4.32;1.67;;;;;;;12.79;100.00;95828.72;1034025;28;20022;-73
2023/08/09 01:31:17;;;;;;;2.88;1.60;;;;;;;12.81;100.00;95831.88;1030709;28;20081;-75
2023/08/09 01:31:47;;;;;;;7.05;1.70;;;;;;;12.80;100.00;95830.28;1033617;28;20021;-72
2023/08/09 01:32:18;;;;;;;2.42;1.80;;;;;;;12.77;100.00;95830.81;1030749;28;20077;-72
2023/08/09 01:32:48;;;;;;;2.78;1.60;;;;;;;12.70;100.00;95810.06;1030870;28;20019;-73
2023/08/09 01:33:19;;;;;;;1.90;1.52;;;;;;;12.73;100.00;95824.53;1024968;28;20019;-72
2023/08/09 01:33:49;;;;;;;4.22;1.60;;;;;;;12.66;100.00;95819.56;1022667;28;20062;-74
2023/08/09 01:34:20;;;;;;;2.63;1.50;;;;;;;12.71;100.00;95826.66;1026797;28;20026;-73
2023/08/09 01:34:50;;;;;;;2.13;1.90;;;;;;;12.68;100.00;95822.72;1022849;28;20015;-73
2023/08/09 01:35:22;;;;;;;3.08;1.40;;;;;;;12.70;100.00;95822.44;1026733;28;20026;-74
2023/08/09 01:35:55;;;;;;;3.22;1.63;;;;;;;12.68;100.00;95820.09;1026541;28;20727;-73
2023/08/09 01:36:29;;;;;;;3.38;1.60;;;;;;;12.68;100.00;95822.72;1030820;28;20026;-72
2023/08/09 01:37:03;;;;;;;3.30;1.58;;;;;;;12.61;100.00;95811.72;1026520;28;20527;-74
2023/08/09 01:37:40;;;;;;;3.10;1.73;;;;;;;12.65;100.00;95817.22;1021625;29;20042;-71
2023/08/09 01:38:16;;;;;;;4.97;2.03;;;;;;;12.67;100.00;95815.09;1022678;29;20575;-74
2023/08/09 01:38:52;;;;;;;4.28;1.60;;;;;;;12.66;100.00;95813.53;1030790;28;20135;-72
2023/08/09 01:39:23;;;;;;;1.65;1.52;;;;;;;12.68;100.00;95827.22;1026806;28;20713;-73
2023/08/09 01:39:56;;;;;;;2.63;1.80;;;;;;;12.60;100.00;95810.13;1026654;28;20399;-73
2023/08/09 01:40:26;;;;;;;4.03;2.30;;;;;;;12.66;100.00;95819.56;1022240;29;20464;-74
2023/08/09 01:40:56;;;;;;;4.40;2.28;;;;;;;12.66;100.00;95822.22;1022640;29;20051;-73
2023/08/09 01:41:27;;;;;;;5.30;3.40;;;;;;;12.66;100.00;95818.78;1023175;28;20594;-72
2023/08/09 01:41:58;;;;;;;2.25;1.70;;;;;;;12.63;100.00;95819.34;1026808;28;20027;-73
2023/08/09 01:42:29;;;;;;;2.00;1.85;;;;;;;12.66;100.00;95824.06;1030896;28;20026;-74
2023/08/09 01:42:59;;;;;;;2.15;1.88;;;;;;;12.66;100.00;95822.22;1034788;28;20034;-74
2023/08/09 01:43:30;;;;;;;4.60;2.08;;;;;;;12.63;100.00;95819.34;1026626;28;20531;-72
2023/08/09 01:44:00;;;;;;;2.78;1.63;;;;;;;12.68;100.00;95821.94;1022689;29;20372;-72
2023/08/09 01:44:31;;;;;;;3.13;1.60;;;;;;;12.74;100.00;95831.38;1018720;29;20024;-74
2023/08/09 01:45:02;;;;;;;3.50;1.58;;;;;;;12.67;100.00;95825.63;1022456;28;20031;-72
2023/08/09 01:45:33;;;;;;;3.30;1.55;;;;;;;12.69;100.00;95823.50;1018761;29;20039;-74
2023/08/09 01:46:03;;;;;;;6.60;2.88;;;;;;;12.65;100.00;95814.59;1018690;29;20055;-73
2023/08/09 01:46:34;;;;;;;2.30;1.50;;;;;;;12.79;100.00;95820.03;1022747;29;20034;-73
2023/08/09 01:47:05;;;;;;;2.30;1.63;;;;;;;12.80;100.00;95822.38;1029489;28;20064;-73
2023/08/09 01:47:35;;;;;;;4.20;1.90;;;;;;;12.82;100.00;95822.13;1030696;28;20023;-72
2023/08/09 01:48:07;;;;;;;4.45;2.15;;;;;;;12.82;100.00;95830.81;1030611;28;20032;-73
2023/08/09 01:48:37;;;;;;;3.78;1.88;;;;;;;12.77;100.00;95822.91;1026589;28;20370;-72
2023/08/09 01:49:09;;;;;;;3.20;2.05;;;;;;;12.78;100.00;95815.84;1026880;28;20081;-73
2023/08/09 01:49:47;;;;;;;3.03;1.90;;;;;;;12.79;100.00;95828.72;1026661;28;20114;-73
2023/08/09 01:50:24;;;;;;;2.92;1.70;;;;;;;12.84;100.00;95825.25;1031695;28;20591;-73
2023/08/09 01:50:56;;;;;;;2.17;1.83;;;;;;;12.85;100.00;95830.25;1030588;28;20817;-74
2023/08/09 01:51:27;;;;;;;3.05;1.90;;;;;;;12.83;100.00;95835.00;1030714;28;20025;-72
2023/08/09 01:51:57;;;;;;;2.78;2.08;;;;;;;12.84;100.00;95833.16;1029462;28;20026;-72
2023/08/09 01:52:28;;;;;;;7.80;2.17;;;;;;;12.86;100.00;95831.81;1022788;28;20031;-73
2023/08/09 01:52:58;;;;;;;4.80;1.75;;;;;;;12.84;100.00;95820.75;1022869;28;20066;-74
2023/08/09 01:53:29;;;;;;;4.40;1.70;;;;;;;12.85;100.00;95821.56;1026550;28;20023;-71
2023/08/09 01:54:00;;;;;;;5.05;2.00;;;;;;;12.84;100.00;95818.13;1026519;28;20019;-72
2023/08/09 01:54:31;;;;;;;5.47;2.08;;;;;;;12.85;100.00;95822.34;1022546;29;20027;-72
2023/08/09 01:55:01;;;;;;;4.43;1.85;;;;;;;12.87;100.00;95817.59;1018946;29;20067;-73
2023/08/09 01:55:32;;;;;;;3.08;1.70;;;;;;;12.89;100.00;95823.38;1022925;28;20069;-74
2023/08/09 01:56:03;;;;;;;4.13;2.10;;;;;;;12.88;100.00;95821.81;1026785;28;20031;-72
2023/08/09 01:56:34;;;;;;;3.17;1.92;;;;;;;12.83;100.00;95808.66;1026766;28;20037;-73
2023/08/09 01:57:05;;;;;;;3.85;2.13;;;;;;;12.90;100.00;95819.66;1029248;28;20623;-73
2023/08/09 01:57:35;;;;;;;3.67;2.00;;;;;;;12.88;100.00;95816.53;1030611;28;20030;-73
2023/08/09 01:58:06;;;;;;;3.25;2.03;;;;;;;12.90;100.00;95813.63;1026878;28;20420;-71
2023/08/09 01:58:37;;;;;;;4.05;2.33;;;;;;;12.90;100.00;95814.41;1030557;28;20042;-72
2023/08/09 01:59:08;;;;;;;6.38;2.08;;;;;;;12.86;100.00;95808.13;1030680;28;20033;-72
2023/08/09 01:59:39;;;;;;;2.17;1.95;;;;;;;12.86;100.00;95799.44;1030651;28;20097;-72
2023/08/09 02:00:10;;;;;;;4.90;2.03;;;;;;;12.93;100.00;95813.84;1026601;28;20106;-72
2023/08/09 02:00:41;;;;;;;3.20;1.80;;;;;;;12.88;100.00;95806.00;1025733;28;20034;-72
2023/08/09 02:01:11;;;;;;;5.15;1.83;;;;;;;12.92;100.00;95812.28;1026722;28;20034;-72
2023/08/09 02:01:43;;;;;;;1.85;1.70;;;;;;;12.88;100.00;95808.66;1026793;28;20030;-71
2023/08/09 02:02:13;;;;;;;2.50;1.70;;;;;;;12.93;100.00;95808.59;1024160;28;20035;-72
2023/08/09 02:02:44;;;;;;;2.67;2.05;;;;;;;12.91;100.00;95805.47;1026716;28;20546;-71
2023/08/09 02:03:14;;;;;;;2.03;1.67;;;;;;;12.92;100.00;95806.25;1030567;28;20045;-72
2023/08/09 02:03:45;;;;;;;3.10;1.88;;;;;;;12.87;100.00;95799.16;1030485;28;20037;-73
2023/08/09 02:04:15;;;;;;;3.88;2.10;;;;;;;12.87;100.00;95809.69;1034636;28;20534;-73
2023/08/09 02:04:45;;;;;;;4.18;2.08;;;;;;;12.90;100.00;95808.34;1030547;28;20026;-72
2023/08/09 02:05:16;;;;;;;4.75;2.40;;;;;;;12.83;100.00;95798.13;1030776;28;20077;-72
2023/08/09 02:05:47;;;;;;;2.80;1.92;;;;;;;12.90;100.00;95805.72;1029117;28;20033;-72
2023/08/09 02:06:17;;;;;;;4.18;1.90;;;;;;;12.89;100.00;95812.84;1026669;28;20034;-73
2023/08/09 02:06:48;;;;;;;2.33;1.67;;;;;;;12.89;100.00;95812.84;1030438;28;20494;-72
2023/08/09 02:07:18;;;;;;;2.45;1.90;;;;;;;12.87;100.00;95814.94;1030576;28;20042;-73
2023/08/09 02:07:50;;;;;;;4.93;2.40;;;;;;;12.88;100.00;95816.53;1038795;28;20032;-73
2023/08/09 02:08:20;;;;;;;2.50;1.80;;;;;;;12.86;100.00;95802.84;1038771;28;20022;-72
2023/08/09 02:08:51;;;;;;;2.88;1.98;;;;;;;12.90;100.00;95808.34;1038199;28;20056;-74
2023/08/09 02:09:21;;;;;;;4.03;2.40;;;;;;;12.89;100.00;95814.69;1035103;28;20034;-73
2023/08/09 02:09:52;;;;;;;3.60;1.80;;;;;;;12.89;100.00;95817.31;1038744;28;20021;-72
2023/08/09 02:10:22;;;;;;;2.22;2.00;;;;;;;12.87;100.00;95809.69;1038155;28;20029;-74
2023/08/09 02:10:53;;;;;;;2.42;1.80;;;;;;;12.88;100.00;95811.28;1037934;28;20617;-72
2023/08/09 02:11:23;;;;;;;7.43;2.30;;;;;;;12.87;100.00;95809.69;1037904;28;20028;-73
2023/08/09 02:11:54;;;;;;;2.78;1.90;;;;;;;12.87;100.00;95808.91;1038633;28;20029;-72
2023/08/09 02:12:24;;;;;;;5.85;2.10;;;;;;;12.87;100.00;95812.31;1038621;28;20183;-73
2023/08/09 02:12:55;;;;;;;2.70;1.77;;;;;;;12.86;100.00;95812.59;1030395;28;20041;-71
2023/08/09 02:13:25;;;;;;;3.60;2.00;;;;;;;12.88;100.00;95807.84;1030463;28;20041;-73
2023/08/09 02:13:55;;;;;;;4.63;2.25;;;;;;;12.86;100.00;95808.13;1026487;28;20039;-72
2023/08/09 02:14:27;;;;;;;1.67;1.50;;;;;;;12.87;100.00;95808.91;1026525;28;20520;-71
2023/08/09 02:14:57;;;;;;;4.57;1.85;;;;;;;12.81;100.00;95799.47;1030448;28;20113;-73
2023/08/09 02:15:28;;;;;;;3.53;1.83;;;;;;;12.85;100.00;95809.19;1030594;28;20058;-73
2023/08/09 02:15:58;;;;;;;2.97;2.05;;;;;;;12.87;100.00;95809.69;1030416;28;20022;-74
2023/08/09 02:16:29;;;;;;;3.20;1.80;;;;;;;12.85;100.00;95809.19;1029416;28;20031;-72
2023/08/09 02:16:59;;;;;;;2.67;1.77;;;;;;;12.88;100.00;95813.91;1022637;29;20512;-72
2023/08/09 02:17:30;;;;;;;2.28;1.92;;;;;;;12.87;100.00;95812.31;1026489;28;20031;-72
2023/08/09 02:18:00;;;;;;;4.30;2.08;;;;;;;12.85;100.00;95808.41;1030429;28;20065;-72
2023/08/09 02:18:32;;;;;;;2.80;1.90;;;;;;;12.89;100.00;95817.31;1022571;29;20027;-71
2023/08/09 02:19:03;;;;;;;4.00;1.92;;;;;;;12.72;100.00;95796.66;1022690;29;20032;-74
2023/08/09 02:19:33;;;;;;;3.90;2.05;;;;;;;12.89;100.00;95817.31;1018738;28;20035;-73
2023/08/09 02:20:06;;;;;;;2.80;2.00;;;;;;;12.88;100.00;95813.91;1023263;28;20035;-70
2023/08/09 02:20:37;;;;;;;2.83;1.88;;;;;;;12.85;100.00;95800.50;1026016;28;20088;-72
2023/08/09 02:21:07;;;;;;;3.35;1.90;;;;;;;12.87;100.00;95812.31;1026622;28;20093;-73
2023/08/09 02:21:38;;;;;;;3.58;2.10;;;;;;;12.87;100.00;95817.59;1030302;28;20395;-74
2023/08/09 02:22:09;;;;;;;2.30;1.67;;;;;;;12.83;100.00;95813.94;1025939;28;20034;-73
2023/08/09 02:22:40;;;;;;;3.72;1.75;;;;;;;12.85;100.00;95817.09;1017815;29;20020;-73
2023/08/09 02:23:10;;;;;;;2.25;1.63;;;;;;;12.87;100.00;95819.44;1021003;29;20031;-74
2023/08/09 02:23:41;;;;;;;2.00;1.70;;;;;;;12.84;100.00;95810.22;1022946;29;20517;-73
2023/08/09 02:24:11;;;;;;;4.65;1.45;;;;;;;12.89;100.00;95817.31;1022855;29;20393;-73
2023/08/09 02:24:43;;;;;;;4.45;2.05;;;;;;;12.89;100.00;95819.97;1018555;28;20036;-73
2023/08/09 02:25:14;;;;;;;3.33;1.70;;;;;;;12.89;100.00;95812.84;1022809;28;20026;-72
2023/08/09 02:25:44;;;;;;;2.47;1.70;;;;;;;12.81;100.00;95805.53;1026434;28;20672;-74
2023/08/09 02:26:15;;;;;;;2.83;2.08;;;;;;;12.80;100.00;95798.69;1023045;28;20075;-73